sensor_id;sensor_type;location;lat;lon;timestamp;pressure;altitude;pressure_sealevel;temperature;humidity
60170;BME280;46042;49.444;6.862;2023-01-28T00:00:50;99407.09;;;0.02;100.00
60170;BME280;46042;49.444;6.862;2023-01-28T00:03:16;99401.91;;;0.02;100.00
60170;BME280;46042;49.444;6.862;2023-01-28T00:05:43;99401.03;;;0.02;100.00
60170;BME280;46042;49.444;6.862;2023-01-28T00:08:10;99407.94;;;0.04;100.00
60170;BME280;46042;49.444;6.862;2023-01-28T00:10:37;99406.19;;;0.05;100.00
60170;BME280;46042;49.444;6.862;2023-01-28T00:13:06;99407.06;;;0.05;100.00
60170;BME280;46042;49.444;6.862;2023-01-28T00:15:33;99406.19;;;0.05;100.00
60170;BME280;46042;49.444;6.862;2023-01-28T00:18:00;99399.31;;;0.01;100.00
60170;BME280;46042;49.444;6.862;2023-01-28T00:20:26;99395.84;;;0.02;100.00
60170;BME280;46042;49.444;6.862;2023-01-28T00:22:53;99397.66;;;-0.04;100.00
60170;BME280;46042;49.444;6.862;2023-01-28T00:25:20;99392.44;;;-0.01;100.00
60170;BME280;46042;49.444;6.862;2023-01-28T00:27:46;99390.72;;;0.00;100.00
60170;BME280;46042;49.444;6.862;2023-01-28T00:30:13;99393.25;;;0.02;100.00
60170;BME280;46042;49.444;6.862;2023-01-28T00:32:40;99383.78;;;-0.01;100.00
60170;BME280;46042;49.444;6.862;2023-01-28T00:35:09;99390.69;;;0.02;100.00
60170;BME280;46042;49.444;6.862;2023-01-28T00:37:36;99401.00;;;0.05;100.00
60170;BME280;46042;49.444;6.862;2023-01-28T00:40:03;99399.28;;;0.05;100.00
60170;BME280;46042;49.444;6.862;2023-01-28T00:42:30;99391.56;;;0.01;100.00
60170;BME280;46042;49.444;6.862;2023-01-28T00:44:57;99401.00;;;0.05;100.00
60170;BME280;46042;49.444;6.862;2023-01-28T00:47:24;99396.69;;;0.04;100.00
60170;BME280;46042;49.444;6.862;2023-01-28T00:49:50;99405.31;;;0.06;100.00
60170;BME280;46042;49.444;6.862;2023-01-28T00:52:17;99407.94;;;0.03;100.00
60170;BME280;46042;49.444;6.862;2023-01-28T00:54:43;99401.03;;;0.03;100.00
60170;BME280;46042;49.444;6.862;2023-01-28T00:57:10;99397.56;;;0.03;100.00
60170;BME280;46042;49.444;6.862;2023-01-28T00:59:37;99401.88;;;0.05;100.00
60170;BME280;46042;49.444;6.862;2023-01-28T01:02:04;99405.31;;;0.06;100.00
60170;BME280;46042;49.444;6.862;2023-01-28T01:04:39;99405.34;;;0.03;100.00
60170;BME280;46042;49.444;6.862;2023-01-28T01:07:05;99404.47;;;0.04;100.00
60170;BME280;46042;49.444;6.862;2023-01-28T01:09:32;99406.19;;;0.06;100.00
60170;BME280;46042;49.444;6.862;2023-01-28T01:11:59;99400.16;;;0.04;100.00
60170;BME280;46042;49.444;6.862;2023-01-28T01:14:26;99406.19;;;0.05;100.00
60170;BME280;46042;49.444;6.862;2023-01-28T01:16:52;99407.88;;;0.09;100.00
60170;BME280;46042;49.444;6.862;2023-01-28T01:19:19;99406.13;;;0.11;100.00
60170;BME280;46042;49.444;6.862;2023-01-28T01:21:45;99404.41;;;0.10;100.00
60170;BME280;46042;49.444;6.862;2023-01-28T01:24:16;99399.25;;;0.07;100.00
60170;BME280;46042;49.444;6.862;2023-01-28T01:26:43;99405.34;;;0.04;100.00
60170;BME280;46042;49.444;6.862;2023-01-28T01:29:10;99403.59;;;0.06;100.00
60170;BME280;46042;49.444;6.862;2023-01-28T01:31:37;99401.03;;;0.02;100.00
60170;BME280;46042;49.444;6.862;2023-01-28T01:34:04;99402.72;;;0.06;100.00
60170;BME280;46042;49.444;6.862;2023-01-28T01:36:30;99415.72;;;0.03;100.00
60170;BME280;46042;49.444;6.862;2023-01-28T01:38:57;99420.00;;;0.04;100.00
60170;BME280;46042;49.444;6.862;2023-01-28T01:41:30;99413.13;;;0.03;100.00
60170;BME280;46042;49.444;6.862;2023-01-28T01:43:59;99414.88;;;0.02;100.00
60170;BME280;46042;49.444;6.862;2023-01-28T01:46:35;99412.31;;;-0.03;100.00
60170;BME280;46042;49.444;6.862;2023-01-28T01:49:25;99416.63;;;0.00;100.00
60170;BME280;46042;49.444;6.862;2023-01-28T01:52:14;99404.53;;;-0.03;100.00
60170;BME280;46042;49.444;6.862;2023-01-28T01:54:44;99409.72;;;-0.04;100.00
60170;BME280;46042;49.444;6.862;2023-01-28T01:57:15;99411.47;;;-0.06;100.00
60170;BME280;46042;49.444;6.862;2023-01-28T01:59:43;99414.09;;;-0.08;100.00
60170;BME280;46042;49.444;6.862;2023-01-28T02:02:10;99417.53;;;-0.06;100.00
60170;BME280;46042;49.444;6.862;2023-01-28T02:04:40;99413.22;;;-0.08;100.00
60170;BME280;46042;49.444;6.862;2023-01-28T02:07:08;99420.13;;;-0.06;100.00
60170;BME280;46042;49.444;6.862;2023-01-28T02:09:35;99422.72;;;-0.06;100.00
60170;BME280;46042;49.444;6.862;2023-01-28T02:12:08;99423.56;;;-0.04;100.00
60170;BME280;46042;49.444;6.862;2023-01-28T02:14:43;99426.09;;;-0.01;100.00
60170;BME280;46042;49.444;6.862;2023-01-28T02:17:11;99417.47;;;-0.01;100.00
60170;BME280;46042;49.444;6.862;2023-01-28T02:19:43;99425.22;;;-0.01;100.00
60170;BME280;46042;49.444;6.862;2023-01-28T02:22:28;99422.63;;;-0.01;100.00
60170;BME280;46042;49.444;6.862;2023-01-28T02:30:51;99422.69;;;-0.03;100.00
60170;BME280;46042;49.444;6.862;2023-01-28T02:33:38;99414.03;;;-0.03;100.00
60170;BME280;46042;49.444;6.862;2023-01-28T02:39:07;99412.31;;;-0.04;100.00
60170;BME280;46042;49.444;6.862;2023-01-28T02:41:45;99419.22;;;-0.02;100.00
60170;BME280;46042;49.444;6.862;2023-01-28T02:44:14;99414.03;;;-0.02;100.00
60170;BME280;46042;49.444;6.862;2023-01-28T02:46:40;99408.81;;;0.02;100.00
60170;BME280;46042;49.444;6.862;2023-01-28T02:58:25;99421.84;;;-0.05;100.00
60170;BME280;46042;49.444;6.862;2023-01-28T03:01:18;99420.13;;;-0.09;100.00
60170;BME280;46042;49.444;6.862;2023-01-28T03:03:57;99426.19;;;-0.08;100.00
60170;BME280;46042;49.444;6.862;2023-01-28T03:06:38;99425.31;;;-0.07;100.00
60170;BME280;46042;49.444;6.862;2023-01-28T03:09:09;99419.28;;;-0.08;100.00
60170;BME280;46042;49.444;6.862;2023-01-28T03:14:39;99423.59;;;-0.08;100.00
60170;BME280;46042;49.444;6.862;2023-01-28T03:17:40;99426.19;;;-0.10;100.00
60170;BME280;46042;49.444;6.862;2023-01-28T03:20:33;99434.78;;;-0.06;100.00
60170;BME280;46042;49.444;6.862;2023-01-28T03:23:22;99438.19;;;-0.01;100.00
60170;BME280;46042;49.444;6.862;2023-01-28T03:26:10;99439.06;;;-0.01;100.00
60170;BME280;46042;49.444;6.862;2023-01-28T03:29:03;99439.91;;;0.03;100.00
60170;BME280;46042;49.444;6.862;2023-01-28T03:31:51;99434.69;;;0.05;100.00
60170;BME280;46042;49.444;6.862;2023-01-28T03:34:38;99429.50;;;0.05;100.00
60170;BME280;46042;49.444;6.862;2023-01-28T03:37:24;99438.19;;;0.02;100.00
60170;BME280;46042;49.444;6.862;2023-01-28T03:39:53;99430.41;;;0.01;100.00
60170;BME280;46042;49.444;6.862;2023-01-28T03:42:23;99445.94;;;0.02;100.00
60170;BME280;46042;49.444;6.862;2023-01-28T03:44:50;99450.28;;;0.00;100.00
60170;BME280;46042;49.444;6.862;2023-01-28T03:47:21;99448.53;;;0.01;100.00
60170;BME280;46042;49.444;6.862;2023-01-28T03:49:50;99456.31;;;0.01;100.00
60170;BME280;46042;49.444;6.862;2023-01-28T03:52:20;99452.84;;;0.03;100.00
60170;BME280;46042;49.444;6.862;2023-01-28T03:54:48;99450.28;;;-0.02;100.00
60170;BME280;46042;49.444;6.862;2023-01-28T03:57:16;99452.00;;;-0.01;100.00
60170;BME280;46042;49.444;6.862;2023-01-28T03:59:43;99449.44;;;-0.05;100.00
60170;BME280;46042;49.444;6.862;2023-01-28T04:02:12;99460.66;;;0.00;100.00
60170;BME280;46042;49.444;6.862;2023-01-28T04:04:39;99467.59;;;-0.05;100.00
60170;BME280;46042;49.444;6.862;2023-01-28T04:07:10;99469.34;;;-0.06;100.00
60170;BME280;46042;49.444;6.862;2023-01-28T04:09:37;99465.03;;;-0.07;100.00
60170;BME280;46042;49.444;6.862;2023-01-28T04:12:04;99470.22;;;-0.07;100.00
60170;BME280;46042;49.444;6.862;2023-01-28T04:14:31;99474.50;;;-0.07;100.00
60170;BME280;46042;49.444;6.862;2023-01-28T04:16:58;99477.09;;;-0.07;100.00
60170;BME280;46042;49.444;6.862;2023-01-28T04:19:25;99477.97;;;-0.07;100.00
60170;BME280;46042;49.444;6.862;2023-01-28T04:21:52;99482.25;;;-0.04;100.00
60170;BME280;46042;49.444;6.862;2023-01-28T04:24:20;99474.47;;;-0.04;100.00
60170;BME280;46042;49.444;6.862;2023-01-28T04:26:47;99482.25;;;-0.04;100.00
60170;BME280;46042;49.444;6.862;2023-01-28T04:29:14;99475.38;;;-0.07;100.00
60170;BME280;46042;49.444;6.862;2023-01-28T04:31:40;99481.44;;;-0.09;100.00
60170;BME280;46042;49.444;6.862;2023-01-28T04:34:07;99489.22;;;-0.08;100.00
60170;BME280;46042;49.444;6.862;2023-01-28T04:36:34;99493.56;;;-0.11;100.00
60170;BME280;46042;49.444;6.862;2023-01-28T04:39:02;99495.22;;;-0.09;100.00
60170;BME280;46042;49.444;6.862;2023-01-28T04:41:29;99490.06;;;-0.06;100.00
60170;BME280;46042;49.444;6.862;2023-01-28T04:43:55;99491.81;;;-0.08;100.00
60170;BME280;46042;49.444;6.862;2023-01-28T04:46:22;99497.84;;;-0.10;100.00
60170;BME280;46042;49.444;6.862;2023-01-28T04:48:48;99499.56;;;-0.08;100.00
60170;BME280;46042;49.444;6.862;2023-01-28T04:51:15;99497.81;;;-0.09;100.00
60170;BME280;46042;49.444;6.862;2023-01-28T04:53:42;99502.19;;;-0.14;100.00
60170;BME280;46042;49.444;6.862;2023-01-28T04:56:08;99503.03;;;-0.12;100.00
60170;BME280;46042;49.444;6.862;2023-01-28T04:58:35;99505.63;;;-0.12;100.00
60170;BME280;46042;49.444;6.862;2023-01-28T05:01:02;99505.69;;;-0.18;100.00
60170;BME280;46042;49.444;6.862;2023-01-28T05:03:28;99505.66;;;-0.15;100.00
60170;BME280;46042;49.444;6.862;2023-01-28T05:05:55;99507.41;;;-0.16;100.00
60170;BME280;46042;49.444;6.862;2023-01-28T05:08:22;99497.00;;;-0.14;100.00
60170;BME280;46042;49.444;6.862;2023-01-28T05:10:48;99494.47;;;-0.16;100.00
60170;BME280;46042;49.444;6.862;2023-01-28T05:13:15;99499.63;;;-0.19;100.00
60170;BME280;46042;49.444;6.862;2023-01-28T05:15:41;99507.41;;;-0.19;100.00
60170;BME280;46042;49.444;6.862;2023-01-28T05:18:08;99508.28;;;-0.17;100.00
60170;BME280;46042;49.444;6.862;2023-01-28T05:20:35;99503.94;;;-0.15;100.00
60170;BME280;46042;49.444;6.862;2023-01-28T05:23:01;99510.84;;;-0.13;100.00
60170;BME280;46042;49.444;6.862;2023-01-28T05:25:28;99504.78;;;-0.12;100.00
60170;BME280;46042;49.444;6.862;2023-01-28T05:27:54;99512.56;;;-0.14;100.00
60170;BME280;46042;49.444;6.862;2023-01-28T05:30:21;99510.84;;;-0.13;100.00
60170;BME280;46042;49.444;6.862;2023-01-28T05:32:48;99514.31;;;-0.15;100.00
60170;BME280;46042;49.444;6.862;2023-01-28T05:35:15;99523.81;;;-0.17;100.00
60170;BME280;46042;49.444;6.862;2023-01-28T05:37:42;99519.44;;;-0.13;100.00
60170;BME280;46042;49.444;6.862;2023-01-28T05:40:09;99523.78;;;-0.15;100.00
60170;BME280;46042;49.444;6.862;2023-01-28T05:42:36;99522.09;;;-0.21;100.00
60170;BME280;46042;49.444;6.862;2023-01-28T05:45:03;99525.56;;;-0.20;100.00
60170;BME280;46042;49.444;6.862;2023-01-28T05:47:29;99524.69;;;-0.21;100.00
60170;BME280;46042;49.444;6.862;2023-01-28T05:49:56;99515.22;;;-0.23;100.00
60170;BME280;46042;49.444;6.862;2023-01-28T05:52:23;99520.38;;;-0.22;100.00
60170;BME280;46042;49.444;6.862;2023-01-28T05:54:49;99519.56;;;-0.27;100.00
60170;BME280;46042;49.444;6.862;2023-01-28T05:57:16;99528.22;;;-0.28;100.00
60170;BME280;46042;49.444;6.862;2023-01-28T05:59:42;99527.38;;;-0.30;100.00
60170;BME280;46042;49.444;6.862;2023-01-28T06:02:09;99527.38;;;-0.30;100.00
60170;BME280;46042;49.444;6.862;2023-01-28T06:04:36;99532.50;;;-0.27;100.00
60170;BME280;46042;49.444;6.862;2023-01-28T06:07:02;99535.09;;;-0.27;100.00
60170;BME280;46042;49.444;6.862;2023-01-28T06:09:29;99542.00;;;-0.27;100.00
60170;BME280;46042;49.444;6.862;2023-01-28T06:11:55;99541.13;;;-0.26;100.00
60170;BME280;46042;49.444;6.862;2023-01-28T06:14:22;99547.19;;;-0.26;100.00
60170;BME280;46042;49.444;6.862;2023-01-28T06:16:49;99543.78;;;-0.31;100.00
60170;BME280;46042;49.444;6.862;2023-01-28T06:19:17;99544.66;;;-0.32;100.00
60170;BME280;46042;49.444;6.862;2023-01-28T06:21:44;99554.13;;;-0.33;100.00
60170;BME280;46042;49.444;6.862;2023-01-28T06:24:10;99550.69;;;-0.33;100.00
60170;BME280;46042;49.444;6.862;2023-01-28T06:26:37;99556.72;;;-0.33;100.00
60170;BME280;46042;49.444;6.862;2023-01-28T06:29:04;99561.06;;;-0.33;100.00
60170;BME280;46042;49.444;6.862;2023-01-28T06:31:30;99562.75;;;-0.34;100.00
60170;BME280;46042;49.444;6.862;2023-01-28T06:33:57;99560.19;;;-0.37;100.00
60170;BME280;46042;49.444;6.862;2023-01-28T06:36:23;99555.91;;;-0.41;100.00
60170;BME280;46042;49.444;6.862;2023-01-28T06:38:50;99565.41;;;-0.41;100.00
60170;BME280;46042;49.444;6.862;2023-01-28T06:41:17;99561.09;;;-0.41;100.00
60170;BME280;46042;49.444;6.862;2023-01-28T06:43:43;99565.44;;;-0.48;100.00
60170;BME280;46042;49.444;6.862;2023-01-28T06:46:10;99565.44;;;-0.48;100.00
60170;BME280;46042;49.444;6.862;2023-01-28T06:48:37;99557.69;;;-0.48;100.00
60170;BME280;46042;49.444;6.862;2023-01-28T06:51:03;99557.69;;;-0.52;100.00
60170;BME280;46042;49.444;6.862;2023-01-28T06:53:30;99565.44;;;-0.48;100.00
60170;BME280;46042;49.444;6.862;2023-01-28T06:55:57;99564.63;;;-0.54;100.00
60170;BME280;46042;49.444;6.862;2023-01-28T06:58:24;99574.06;;;-0.52;100.00
60170;BME280;46042;49.444;6.862;2023-01-28T07:00:52;99578.44;;;-0.55;100.00
60170;BME280;46042;49.444;6.862;2023-01-28T07:03:18;99587.09;;;-0.61;100.00
60170;BME280;46042;49.444;6.862;2023-01-28T07:05:45;99590.50;;;-0.56;100.00
60170;BME280;46042;49.444;6.862;2023-01-28T07:08:12;99587.94;;;-0.59;100.00
60170;BME280;46042;49.444;6.862;2023-01-28T07:10:38;99582.75;;;-0.61;100.00
60170;BME280;46042;49.444;6.862;2023-01-28T07:13:05;99580.16;;;-0.59;100.00
60170;BME280;46042;49.444;6.862;2023-01-28T07:15:32;99590.50;;;-0.61;100.00
60170;BME280;46042;49.444;6.862;2023-01-28T07:17:58;99587.09;;;-0.60;100.00
60170;BME280;46042;49.444;6.862;2023-01-28T07:20:25;99585.34;;;-0.59;100.00
60170;BME280;46042;49.444;6.862;2023-01-28T07:22:51;99587.94;;;-0.59;100.00
60170;BME280;46042;49.444;6.862;2023-01-28T07:25:18;99596.59;;;-0.63;100.00
60170;BME280;46042;49.444;6.862;2023-01-28T07:27:50;99593.09;;;-0.56;100.00
60170;BME280;46042;49.444;6.862;2023-01-28T07:30:18;99592.25;;;-0.56;100.00
60170;BME280;46042;49.444;6.862;2023-01-28T07:32:46;99594.81;;;-0.53;100.00
60170;BME280;46042;49.444;6.862;2023-01-28T07:35:13;99599.97;;;-0.52;100.00
60170;BME280;46042;49.444;6.862;2023-01-28T07:37:39;99600.84;;;-0.50;100.00
60170;BME280;46042;49.444;6.862;2023-01-28T07:40:07;99601.69;;;-0.49;100.00
60170;BME280;46042;49.444;6.862;2023-01-28T07:42:33;99605.13;;;-0.52;100.00
60170;BME280;46042;49.444;6.862;2023-01-28T07:45:00;99604.28;;;-0.52;100.00
60170;BME280;46042;49.444;6.862;2023-01-28T07:47:27;99613.78;;;-0.53;100.00
60170;BME280;46042;49.444;6.862;2023-01-28T07:49:54;99614.63;;;-0.49;100.00
60170;BME280;46042;49.444;6.862;2023-01-28T07:52:20;99607.72;;;-0.49;100.00
60170;BME280;46042;49.444;6.862;2023-01-28T07:54:47;99608.56;;;-0.42;100.00
60170;BME280;46042;49.444;6.862;2023-01-28T07:57:13;99609.41;;;-0.40;100.00
60170;BME280;46042;49.444;6.862;2023-01-28T07:59:40;99599.03;;;-0.37;100.00
60170;BME280;46042;49.444;6.862;2023-01-28T08:02:10;99610.25;;;-0.35;100.00
60170;BME280;46042;49.444;6.862;2023-01-28T08:04:37;99607.66;;;-0.36;100.00
60170;BME280;46042;49.444;6.862;2023-01-28T08:07:06;99608.50;;;-0.33;100.00
60170;BME280;46042;49.444;6.862;2023-01-28T08:09:33;99617.13;;;-0.29;100.00
60170;BME280;46042;49.444;6.862;2023-01-28T08:12:00;99620.56;;;-0.27;100.00
60170;BME280;46042;49.444;6.862;2023-01-28T08:14:28;99625.69;;;-0.21;100.00
60170;BME280;46042;49.444;6.862;2023-01-28T08:16:56;99616.19;;;-0.22;100.00
60170;BME280;46042;49.444;6.862;2023-01-28T08:19:22;99613.59;;;-0.20;100.00
60170;BME280;46042;49.444;6.862;2023-01-28T08:21:49;99618.75;;;-0.16;100.00
60170;BME280;46042;49.444;6.862;2023-01-28T08:24:16;99617.03;;;-0.15;100.00
60170;BME280;46042;49.444;6.862;2023-01-28T08:26:43;99623.06;;;-0.15;100.00
60170;BME280;46042;49.444;6.862;2023-01-28T08:29:12;99629.97;;;-0.13;100.00
60170;BME280;46042;49.444;6.862;2023-01-28T08:31:39;99633.38;;;-0.10;100.00
60170;BME280;46042;49.444;6.862;2023-01-28T08:34:05;99629.94;;;-0.12;100.00
60170;BME280;46042;49.444;6.862;2023-01-28T08:36:32;99624.75;;;-0.07;100.00
60170;BME280;46042;49.444;6.862;2023-01-28T08:38:58;99628.22;;;-0.07;100.00
60170;BME280;46042;49.444;6.862;2023-01-28T08:41:25;99636.81;;;0.00;100.00
60170;BME280;46042;49.444;6.862;2023-01-28T08:43:52;99626.44;;;0.00;100.00
60170;BME280;46042;49.444;6.862;2023-01-28T08:46:18;99622.09;;;0.02;100.00
60170;BME280;46042;49.444;6.862;2023-01-28T08:48:45;99625.56;;;-0.01;100.00
60170;BME280;46042;49.444;6.862;2023-01-28T08:51:12;99633.31;;;0.03;100.00
60170;BME280;46042;49.444;6.862;2023-01-28T08:53:38;99626.41;;;0.02;100.00
60170;BME280;46042;49.444;6.862;2023-01-28T08:56:05;99628.13;;;0.03;100.00
60170;BME280;46042;49.444;6.862;2023-01-28T08:58:32;99633.31;;;0.04;100.00
60170;BME280;46042;49.444;6.862;2023-01-28T09:01:05;99629.84;;;0.05;100.00
60170;BME280;46042;49.444;6.862;2023-01-28T09:03:32;99625.56;;;0.01;100.00
60170;BME280;46042;49.444;6.862;2023-01-28T09:06:00;99634.16;;;0.06;100.00
60170;BME280;46042;49.444;6.862;2023-01-28T09:08:27;99640.22;;;0.05;100.00
60170;BME280;46042;49.444;6.862;2023-01-28T09:10:55;99647.09;;;0.11;100.00
60170;BME280;46042;49.444;6.862;2023-01-28T09:13:22;99646.19;;;0.13;100.00
60170;BME280;46042;49.444;6.862;2023-01-28T09:15:49;99643.59;;;0.15;100.00
60170;BME280;46042;49.444;6.862;2023-01-28T09:18:17;99647.06;;;0.14;100.00
60170;BME280;46042;49.444;6.862;2023-01-28T09:20:44;99654.81;;;0.17;100.00
60170;BME280;46042;49.444;6.862;2023-01-28T09:23:11;99655.66;;;0.21;100.00
60170;BME280;46042;49.444;6.862;2023-01-28T09:25:38;99655.66;;;0.19;100.00
60170;BME280;46042;49.444;6.862;2023-01-28T09:28:05;99647.78;;;0.30;100.00
60170;BME280;46042;49.444;6.862;2023-01-28T09:30:32;99659.03;;;0.29;100.00
60170;BME280;46042;49.444;6.862;2023-01-28T09:33:03;99661.66;;;0.27;100.00
60170;BME280;46042;49.444;6.862;2023-01-28T09:35:30;99667.69;;;0.28;100.00
60170;BME280;46042;49.444;6.862;2023-01-28T09:37:57;99666.81;;;0.29;100.00
60170;BME280;46042;49.444;6.862;2023-01-28T09:40:50;99667.66;;;0.33;100.00
60170;BME280;46042;49.444;6.862;2023-01-28T09:46:02;99677.06;;;0.45;100.00
60170;BME280;46042;49.444;6.862;2023-01-28T09:48:48;99678.91;;;0.32;100.00
60170;BME280;46042;49.444;6.862;2023-01-28T09:51:33;99675.50;;;0.25;100.00
60170;BME280;46042;49.444;6.862;2023-01-28T09:54:06;99679.78;;;0.26;100.00
60170;BME280;46042;49.444;6.862;2023-01-28T09:56:41;99680.66;;;0.30;100.00
60170;BME280;46042;49.444;6.862;2023-01-28T09:59:21;99685.81;;;0.30;100.00
60170;BME280;46042;49.444;6.862;2023-01-28T10:04:57;99687.47;;;0.40;100.00
60170;BME280;46042;49.444;6.862;2023-01-28T10:07:35;99686.63;;;0.39;100.00
60170;BME280;46042;49.444;6.862;2023-01-28T10:10:15;99687.47;;;0.43;100.00
60170;BME280;46042;49.444;6.862;2023-01-28T10:18:32;99697.69;;;0.59;100.00
60170;BME280;46042;49.444;6.862;2023-01-28T10:21:10;99683.84;;;0.63;100.00
60170;BME280;46042;49.444;6.862;2023-01-28T10:23:45;99691.47;;;0.81;100.00
60170;BME280;46042;49.444;6.862;2023-01-28T10:26:36;99691.28;;;1.00;100.00
60170;BME280;46042;49.444;6.862;2023-01-28T10:29:17;99677.72;;;1.54;100.00
60170;BME280;46042;49.444;6.862;2023-01-28T10:31:51;99678.53;;;2.24;100.00
60170;BME280;46042;49.444;6.862;2023-01-28T10:34:20;99679.22;;;4.18;100.00
60170;BME280;46042;49.444;6.862;2023-01-28T10:36:47;99679.41;;;5.17;94.72
60170;BME280;46042;49.444;6.862;2023-01-28T10:39:16;99676.94;;;5.74;86.14
60170;BME280;46042;49.444;6.862;2023-01-28T10:41:43;99668.16;;;5.77;85.63
60170;BME280;46042;49.444;6.862;2023-01-28T10:44:35;99678.28;;;5.26;78.53
60170;BME280;46042;49.444;6.862;2023-01-28T10:47:09;99679.41;;;5.49;85.86
60170;BME280;46042;49.444;6.862;2023-01-28T10:49:41;99680.41;;;4.78;80.03
60170;BME280;46042;49.444;6.862;2023-01-28T10:52:11;99679.06;;;3.86;83.06
60170;BME280;46042;49.444;6.862;2023-01-28T10:54:38;99700.09;;;3.34;86.44
60170;BME280;46042;49.444;6.862;2023-01-28T10:57:15;99704.34;;;2.90;87.39
60170;BME280;46042;49.444;6.862;2023-01-28T10:59:43;99706.38;;;2.70;87.34
60170;BME280;46042;49.444;6.862;2023-01-28T11:07:43;99697.94;;;2.56;91.52
60170;BME280;46042;49.444;6.862;2023-01-28T11:10:27;99689.75;;;2.81;92.97
60170;BME280;46042;49.444;6.862;2023-01-28T11:12:56;99691.81;;;3.12;89.16
60170;BME280;46042;49.444;6.862;2023-01-28T11:15:24;99697.91;;;3.11;88.18
60170;BME280;46042;49.444;6.862;2023-01-28T11:18:14;99703.25;;;3.03;88.41
60170;BME280;46042;49.444;6.862;2023-01-28T11:20:49;99696.69;;;2.80;88.16
60170;BME280;46042;49.444;6.862;2023-01-28T11:23:26;99698.03;;;2.51;89.89
60170;BME280;46042;49.444;6.862;2023-01-28T11:26:16;99694.63;;;2.46;90.77
60170;BME280;46042;49.444;6.862;2023-01-28T11:28:44;99697.22;;;2.48;90.04
60170;BME280;46042;49.444;6.862;2023-01-28T11:31:14;99696.66;;;2.27;89.67
60170;BME280;46042;49.444;6.862;2023-01-28T11:33:51;99703.66;;;2.22;87.67
60170;BME280;46042;49.444;6.862;2023-01-28T11:36:27;99689.03;;;2.16;91.14
60170;BME280;46042;49.444;6.862;2023-01-28T11:38:56;99697.72;;;2.15;87.23
60170;BME280;46042;49.444;6.862;2023-01-28T11:43:57;99698.56;;;2.16;92.81
60170;BME280;46042;49.444;6.862;2023-01-28T11:47:25;99698.50;;;2.20;92.52
60170;BME280;46042;49.444;6.862;2023-01-28T11:52:37;99682.91;;;2.19;89.58
60170;BME280;46042;49.444;6.862;2023-01-28T12:00:55;99673.47;;;2.13;93.47
60170;BME280;46042;49.444;6.862;2023-01-28T12:11:40;99666.84;;;1.90;93.87
60170;BME280;46042;49.444;6.862;2023-01-28T12:23:24;99666.09;;;1.83;91.60
60170;BME280;46042;49.444;6.862;2023-01-28T12:26:06;99662.59;;;1.84;93.10
60170;BME280;46042;49.444;6.862;2023-01-28T12:31:54;99656.63;;;1.78;90.99
60170;BME280;46042;49.444;6.862;2023-01-28T12:34:57;99659.31;;;1.72;92.73
60170;BME280;46042;49.444;6.862;2023-01-28T12:38:40;99671.44;;;1.71;92.62
60170;BME280;46042;49.444;6.862;2023-01-28T12:45:59;99652.41;;;1.70;94.33
60170;BME280;46042;49.444;6.862;2023-01-28T12:48:36;99647.16;;;1.75;96.06
60170;BME280;46042;49.444;6.862;2023-01-28T12:51:15;99650.63;;;1.73;94.07
60170;BME280;46042;49.444;6.862;2023-01-28T12:56:34;99647.25;;;1.66;93.46
60170;BME280;46042;49.444;6.862;2023-01-28T12:59:16;99655.03;;;1.67;94.69
60170;BME280;46042;49.444;6.862;2023-01-28T13:05:17;99646.38;;;1.67;94.34
60170;BME280;46042;49.444;6.862;2023-01-28T13:08:12;99639.53;;;1.61;93.52
60170;BME280;46042;49.444;6.862;2023-01-28T13:10:44;99645.59;;;1.63;93.04
60170;BME280;46042;49.444;6.862;2023-01-28T13:13:35;99662.03;;;1.62;93.45
60170;BME280;46042;49.444;6.862;2023-01-28T13:16:05;99656.06;;;1.55;90.58
60170;BME280;46042;49.444;6.862;2023-01-28T13:18:36;99654.38;;;1.51;93.96
60170;BME280;46042;49.444;6.862;2023-01-28T13:24:03;99658.75;;;1.48;98.50
60170;BME280;46042;49.444;6.862;2023-01-28T13:27:09;99661.34;;;1.48;99.67
60170;BME280;46042;49.444;6.862;2023-01-28T13:29:32;99664.84;;;1.45;98.04
60170;BME280;46042;49.444;6.862;2023-01-28T13:32:01;99671.03;;;1.32;96.82
60170;BME280;46042;49.444;6.862;2023-01-28T13:34:41;99665.81;;;1.36;99.02
60170;BME280;46042;49.444;6.862;2023-01-28T13:40:21;99665.75;;;1.39;100.00
60170;BME280;46042;49.444;6.862;2023-01-28T13:43:04;99682.22;;;1.38;100.00
60170;BME280;46042;49.444;6.862;2023-01-28T13:45:32;99692.69;;;1.32;98.96
60170;BME280;46042;49.444;6.862;2023-01-28T13:48:14;99695.41;;;1.18;99.25
60170;BME280;46042;49.444;6.862;2023-01-28T13:50:45;99698.88;;;1.19;99.17
60170;BME280;46042;49.444;6.862;2023-01-28T13:53:30;99693.00;;;1.01;100.00
60170;BME280;46042;49.444;6.862;2023-01-28T13:56:03;99701.66;;;0.98;99.67
60170;BME280;46042;49.444;6.862;2023-01-28T14:01:53;99706.84;;;1.00;99.65
60170;BME280;46042;49.444;6.862;2023-01-28T14:15:57;99715.72;;;0.74;100.00
60170;BME280;46042;49.444;6.862;2023-01-28T14:18:39;99718.31;;;0.76;100.00
60170;BME280;46042;49.444;6.862;2023-01-28T14:21:14;99724.41;;;0.70;100.00
60170;BME280;46042;49.444;6.862;2023-01-28T14:23:50;99723.53;;;0.71;100.00
60170;BME280;46042;49.444;6.862;2023-01-28T14:31:36;99726.16;;;0.68;100.00
60170;BME280;46042;49.444;6.862;2023-01-28T14:34:28;99725.25;;;0.74;100.00
60170;BME280;46042;49.444;6.862;2023-01-28T14:36:59;99732.13;;;0.76;100.00
60170;BME280;46042;49.444;6.862;2023-01-28T14:39:30;99724.34;;;0.79;100.00
60170;BME280;46042;49.444;6.862;2023-01-28T14:42:00;99726.06;;;0.80;100.00
60170;BME280;46042;49.444;6.862;2023-01-28T14:53:35;99734.00;;;0.55;100.00
60170;BME280;46042;49.444;6.862;2023-01-28T14:59:03;99731.47;;;0.49;100.00
60170;BME280;46042;49.444;6.862;2023-01-28T15:01:33;99740.97;;;0.49;100.00
60170;BME280;46042;49.444;6.862;2023-01-28T15:04:00;99731.47;;;0.49;100.00
60170;BME280;46042;49.444;6.862;2023-01-28T15:06:33;99728.97;;;0.37;98.10
60170;BME280;46042;49.444;6.862;2023-01-28T15:09:08;99730.72;;;0.35;99.01
60170;BME280;46042;49.444;6.862;2023-01-28T15:11:40;99729.84;;;0.31;99.05
60170;BME280;46042;49.444;6.862;2023-01-28T15:14:29;99721.25;;;0.24;98.96
60170;BME280;46042;49.444;6.862;2023-01-28T15:16:58;99724.78;;;0.19;99.27